Time;durP1;ratioP1;P1;durP2;ratioP2;P2;SDS_P1;SDS_P2;PMS_P1;PMS_P2;Temp;Humidity;BMP_temperature;BMP_pressure;BME280_temperature;BME280_humidity;BME280_pressure;Samples;Min_cycle;Max_cycle;Signal;HPM_P1;HPM_P2
2023/04/19 00:00:38;;;;;;;;;;;;;;;10.84;66.56;94232.09;4188238;28;19976;-63
2023/04/19 00:02:41;;;;;;;;;;;;;;;10.77;66.33;94228.53;4183586;28;19931;-62
2023/04/19 00:04:43;;;;;;;;;;;;;;;10.48;67.34;94227.38;4180756;28;19928;-62
2023/04/19 00:06:46;;;;;;;;;;;;;;;10.40;68.02;94228.22;4190712;28;19924;-61
2023/04/19 00:08:47;;;;;;;;;;;;;;;10.38;67.79;94222.31;4192312;28;19964;-61
2023/04/19 00:10:49;;;;;;;;;;;;;;;10.38;68.03;94226.75;4191446;28;20339;-61
2023/04/19 00:12:50;;;;;;;;;;;;;;;10.44;68.02;94233.94;4192694;28;19924;-52
2023/04/19 00:14:52;;;;;;;;;;;;;;;10.42;67.61;94230.66;4191999;28;19975;-55
2023/04/19 00:16:53;;;;;;;;;;;;;;;10.44;67.80;94223.47;4191459;28;19950;-53
2023/04/19 00:18:55;;;;;;;;;;;;;;;10.53;67.54;94224.25;4190127;28;19978;-55
2023/04/19 00:20:57;;;;;;;;;;;;;;;10.55;67.95;94224.88;4192648;28;19924;-50
2023/04/19 00:22:58;;;;;;;;;;;;;;;10.39;67.53;94220.50;4192004;28;19970;-52
2023/04/19 00:25:00;;;;;;;;;;;;;;;9.89;69.55;94216.38;4191705;28;20322;-51
2023/04/19 00:27:02;;;;;;;;;;;;;;;9.77;69.82;94224.59;4192216;28;19967;-52
2023/04/19 00:29:04;;;;;;;;;;;;;;;9.74;69.95;94219.66;4191979;28;19928;-54
2023/04/19 00:31:05;;;;;;;;;;;;;;;9.68;70.27;94220.34;4192235;28;20010;-55
2023/04/19 00:33:11;;;;;;;;;;;;;;;9.77;70.13;94219.34;4183155;28;19975;-49
2023/04/19 00:35:13;;;;;;;;;;;;;;;9.80;70.36;94215.59;4191096;28;19932;-50
2023/04/19 00:37:15;;;;;;;;;;;;;;;9.84;70.86;94214.28;4192454;28;19928;-54
2023/04/19 00:39:16;;;;;;;;;;;;;;;10.04;70.62;94214.72;4191690;28;19928;-55
2023/04/19 00:41:18;;;;;;;;;;;;;;;10.20;69.33;94216.47;4192690;28;19928;-54
2023/04/19 00:43:19;;;;;;;;;;;;;;;10.17;69.23;94211.56;4190955;28;19924;-51
2023/04/19 00:45:21;;;;;;;;;;;;;;;9.90;69.86;94211.00;4192280;28;19952;-52
2023/04/19 00:47:22;;;;;;;;;;;;;;;10.00;70.63;94209.00;4192435;28;20569;-55
2023/04/19 00:49:24;;;;;;;;;;;;;;;10.03;70.17;94210.47;4190542;28;19938;-50
2023/04/19 00:51:26;;;;;;;;;;;;;;;10.14;70.19;94209.28;4191755;28;19932;-56
2023/04/19 00:53:28;;;;;;;;;;;;;;;10.27;69.62;94201.72;4191622;28;19971;-55
2023/04/19 00:55:29;;;;;;;;;;;;;;;10.40;68.77;94209.88;4192019;28;19937;-54
2023/04/19 00:57:31;;;;;;;;;;;;;;;10.57;68.49;94212.44;4190179;28;19954;-52
2023/04/19 00:59:33;;;;;;;;;;;;;;;10.62;67.74;94200.44;4189920;28;19932;-53
2023/04/19 01:01:35;;;;;;;;;;;;;;;10.72;67.39;94202.88;4191865;28;20025;-56
2023/04/19 01:03:37;;;;;;;;;;;;;;;10.81;67.46;94212.31;4190295;28;20003;-55
2023/04/19 01:05:39;;;;;;;;;;;;;;;10.93;66.95;94201.47;4190386;28;19940;-51
2023/04/19 01:07:40;;;;;;;;;;;;;;;10.92;66.71;94205.84;4192414;28;19985;-55
2023/04/19 01:09:42;;;;;;;;;;;;;;;10.94;66.78;94197.84;4190087;28;19924;-56
2023/04/19 01:11:44;;;;;;;;;;;;;;;10.91;66.45;94196.38;4191150;28;19964;-55
2023/04/19 01:13:45;;;;;;;;;;;;;;;10.97;66.39;94194.84;4192104;28;19932;-54
2023/04/19 01:15:47;;;;;;;;;;;;;;;10.97;66.57;94195.69;4190904;28;19997;-53
2023/04/19 01:17:49;;;;;;;;;;;;;;;10.94;66.79;94190.78;4192483;28;20503;-54
2023/04/19 01:19:57;;;;;;;;;;;;;;;10.92;67.29;94191.94;4190448;28;19924;-53
2023/04/19 01:21:59;;;;;;;;;;;;;;;10.95;66.75;94188.97;4189591;28;20625;-54
2023/04/19 01:24:00;;;;;;;;;;;;;;;10.94;66.91;94188.16;4194916;28;19938;-54
2023/04/19 01:26:02;;;;;;;;;;;;;;;10.89;67.18;94194.94;4195745;28;19932;-54
2023/04/19 01:28:04;;;;;;;;;;;;;;;10.89;67.40;94192.31;4195107;28;20032;-54
2023/04/19 01:30:05;;;;;;;;;;;;;;;10.86;67.36;94196.06;4195070;28;20010;-53
2023/04/19 01:32:07;;;;;;;;;;;;;;;10.90;67.34;94193.91;4194466;28;19936;-54
2023/04/19 01:34:09;;;;;;;;;;;;;;;10.90;67.45;94197.34;4188694;28;19934;-54
2023/04/19 01:36:11;;;;;;;;;;;;;;;10.71;68.11;94192.56;4195639;28;19928;-54
2023/04/19 01:38:13;;;;;;;;;;;;;;;10.63;68.37;94196.84;4195173;28;19929;-54
2023/04/19 01:40:15;;;;;;;;;;;;;;;10.41;69.14;94193.19;4193889;28;20293;-52
2023/04/19 01:42:17;;;;;;;;;;;;;;;10.01;70.38;94196.75;4195460;28;19982;-54
2023/04/19 01:44:18;;;;;;;;;;;;;;;9.59;72.23;94195.16;4193980;28;19970;-53
2023/04/19 01:46:20;;;;;;;;;;;;;;;9.39;73.06;94202.53;4194917;28;20030;-53
2023/04/19 01:48:21;;;;;;;;;;;;;;;9.00;74.94;94193.53;4193406;28;20288;-56
2023/04/19 01:50:23;;;;;;;;;;;;;;;9.02;75.18;94193.38;4194956;28;19924;-56
2023/04/19 01:52:24;;;;;;;;;;;;;;;8.94;75.90;94195.97;4194976;28;19925;-53
2023/04/19 01:54:26;;;;;;;;;;;;;;;8.84;75.52;94196.16;4194106;28;19951;-56
2023/04/19 01:56:27;;;;;;;;;;;;;;;8.90;76.52;94189.44;4194381;28;20008;-56
2023/04/19 01:58:29;;;;;;;;;;;;;;;8.96;75.58;94192.22;4192616;28;20472;-57
2023/04/19 02:00:30;;;;;;;;;;;;;;;8.95;75.98;94190.59;4194983;28;19978;-56
2023/04/19 02:02:32;;;;;;;;;;;;;;;8.75;76.44;94195.28;4194810;28;19928;-55
2023/04/19 02:04:33;;;;;;;;;;;;;;;8.73;76.71;94194.66;4192027;28;20019;-55
2023/04/19 02:06:35;;;;;;;;;;;;;;;8.75;76.90;94189.25;4193853;28;20022;-54
2023/04/19 02:08:37;;;;;;;;;;;;;;;8.89;75.42;94186.03;4193156;28;19925;-53
2023/04/19 02:10:38;;;;;;;;;;;;;;;8.67;76.47;94194.44;4194228;28;19948;-56
2023/04/19 02:12:40;;;;;;;;;;;;;;;8.57;76.70;94192.00;4194928;28;20364;-55
2023/04/19 02:14:42;;;;;;;;;;;;;;;8.82;77.22;94193.69;4192094;28;19987;-55
2023/04/19 02:16:43;;;;;;;;;;;;;;;9.11;76.32;94195.03;4191944;28;19970;-60
2023/04/19 02:18:45;;;;;;;;;;;;;;;9.34;74.92;94205.66;4191387;28;20180;-62
2023/04/19 02:20:47;;;;;;;;;;;;;;;9.50;73.90;94196.16;4192511;28;19947;-61
2023/04/19 02:22:48;;;;;;;;;;;;;;;9.67;72.99;94196.97;4193922;28;19969;-61
2023/04/19 02:24:50;;;;;;;;;;;;;;;9.80;72.24;94185.00;4193387;28;20023;-54
2023/04/19 02:26:51;;;;;;;;;;;;;;;9.89;71.88;94188.41;4194398;28;19970;-53
2023/04/19 02:28:53;;;;;;;;;;;;;;;10.00;71.95;94184.63;4193690;28;19924;-53
2023/04/19 02:30:55;;;;;;;;;;;;;;;10.09;70.88;94183.63;4194205;28;20396;-54
2023/04/19 02:32:57;;;;;;;;;;;;;;;10.13;70.97;94178.84;4194069;28;19936;-53
2023/04/19 02:34:59;;;;;;;;;;;;;;;10.12;70.78;94182.47;4188429;28;20629;-54
2023/04/19 02:37:01;;;;;;;;;;;;;;;10.15;70.34;94179.50;4188013;28;19959;-52
2023/04/19 02:39:04;;;;;;;;;;;;;;;10.15;70.42;94175.13;4194386;28;20028;-56
2023/04/19 02:41:06;;;;;;;;;;;;;;;10.09;70.36;94182.78;4194165;28;20340;-53
2023/04/19 02:43:07;;;;;;;;;;;;;;;10.07;70.74;94177.75;4194252;28;20351;-53
2023/04/19 02:45:09;;;;;;;;;;;;;;;10.07;70.76;94180.38;4194349;28;19929;-60
2023/04/19 02:47:10;;;;;;;;;;;;;;;10.04;70.29;94183.31;4194113;28;19954;-59
2023/04/19 02:49:12;;;;;;;;;;;;;;;10.08;70.69;94184.59;4191982;28;20406;-60
2023/04/19 02:51:15;;;;;;;;;;;;;;;9.67;71.89;94179.47;4193243;28;19964;-61
2023/04/19 02:53:16;;;;;;;;;;;;;;;9.73;72.07;94178.00;4193634;28;20391;-60
2023/04/19 02:55:18;;;;;;;;;;;;;;;9.80;72.05;94178.97;4186383;28;19991;-64
2023/04/19 02:57:19;;;;;;;;;;;;;;;9.84;71.96;94177.66;4192696;28;20148;-62
2023/04/19 02:59:21;;;;;;;;;;;;;;;9.90;71.40;94179.59;4193368;28;19931;-61
2023/04/19 03:01:22;;;;;;;;;;;;;;;9.77;70.87;94180.13;4194158;28;19924;-62
2023/04/19 03:03:24;;;;;;;;;;;;;;;9.80;71.13;94184.19;4191887;28;19928;-62
2023/04/19 03:05:26;;;;;;;;;;;;;;;9.87;71.07;94179.09;4193064;28;19924;-61
2023/04/19 03:07:27;;;;;;;;;;;;;;;9.96;71.20;94178.94;4193964;28;19924;-61
2023/04/19 03:09:29;;;;;;;;;;;;;;;10.08;71.00;94179.38;4193969;28;19981;-60
2023/04/19 03:11:30;;;;;;;;;;;;;;;10.14;70.37;94181.31;4192846;28;19978;-60
2023/04/19 03:13:32;;;;;;;;;;;;;;;10.21;69.66;94181.47;4192936;28;19963;-61
2023/04/19 03:15:34;;;;;;;;;;;;;;;10.09;70.11;94178.41;4193763;28;19929;-60
2023/04/19 03:17:36;;;;;;;;;;;;;;;10.13;69.98;94174.47;4193753;28;19932;-61
2023/04/19 03:19:38;;;;;;;;;;;;;;;10.17;69.89;94183.59;4191363;28;19986;-62
2023/04/19 03:21:40;;;;;;;;;;;;;;;10.27;69.69;94182.59;4191875;28;19939;-60
2023/04/19 03:23:41;;;;;;;;;;;;;;;10.28;69.49;94176.34;4193071;28;20110;-60
2023/04/19 03:25:43;;;;;;;;;;;;;;;10.16;68.96;94176.72;4193311;28;20035;-60
2023/04/19 03:27:46;;;;;;;;;;;;;;;10.16;69.90;94166.25;4193388;28;20375;-62
2023/04/19 03:29:48;;;;;;;;;;;;;;;10.16;69.38;94173.31;4191618;28;19924;-59
2023/04/19 03:31:49;;;;;;;;;;;;;;;10.15;69.60;94169.88;4191593;28;19994;-61
2023/04/19 03:33:51;;;;;;;;;;;;;;;10.22;68.99;94172.63;4191631;28;20107;-61
2023/04/19 03:35:53;;;;;;;;;;;;;;;10.25;69.07;94180.13;4189326;28;19968;-61
2023/04/19 03:37:54;;;;;;;;;;;;;;;10.31;68.94;94170.81;4192040;28;19924;-60
2023/04/19 03:39:56;;;;;;;;;;;;;;;10.39;69.12;94176.84;4192229;28;20040;-60
2023/04/19 03:41:57;;;;;;;;;;;;;;;10.43;68.68;94169.44;4193818;28;19979;-60
2023/04/19 03:43:59;;;;;;;;;;;;;;;10.42;68.39;94171.25;4190657;28;19991;-61
2023/04/19 03:46:00;;;;;;;;;;;;;;;10.39;68.68;94176.00;4193396;28;20221;-61
2023/04/19 03:48:02;;;;;;;;;;;;;;;10.38;68.93;94177.00;4192809;28;19956;-61
2023/04/19 03:50:04;;;;;;;;;;;;;;;10.29;68.71;94170.16;4190102;28;20031;-61
2023/04/19 03:52:05;;;;;;;;;;;;;;;10.25;68.91;94180.13;4191854;28;19932;-61
2023/04/19 03:54:07;;;;;;;;;;;;;;;10.23;69.04;94174.25;4185241;28;19947;-60
2023/04/19 03:56:08;;;;;;;;;;;;;;;10.23;69.49;94172.44;4193075;28;19925;-50
2023/04/19 03:58:10;;;;;;;;;;;;;;;10.25;69.38;94177.50;4192030;28;19977;-58
2023/04/19 04:00:12;;;;;;;;;;;;;;;10.28;69.43;94173.72;4192526;28;20038;-52
2023/04/19 04:02:13;;;;;;;;;;;;;;;10.18;69.51;94177.38;4193642;28;19960;-54
2023/04/19 04:04:15;;;;;;;;;;;;;;;10.23;68.99;94172.44;4189582;28;19978;-54
2023/04/19 04:06:17;;;;;;;;;;;;;;;10.18;69.35;94176.56;4192208;28;19924;-56
2023/04/19 04:08:19;;;;;;;;;;;;;;;9.96;69.81;94175.47;4193492;28;19924;-55
2023/04/19 04:10:20;;;;;;;;;;;;;;;9.72;71.29;94173.75;4190348;28;19985;-52
2023/04/19 04:12:22;;;;;;;;;;;;;;;9.69;71.16;94177.50;4192712;28;19925;-55
2023/04/19 04:14:24;;;;;;;;;;;;;;;9.69;70.67;94182.75;4192391;28;19993;-57
2023/04/19 04:16:25;;;;;;;;;;;;;;;9.83;70.64;94178.63;4193027;28;20029;-56
2023/04/19 04:18:27;;;;;;;;;;;;;;;9.84;70.39;94177.66;4190840;28;19972;-56
2023/04/19 04:20:29;;;;;;;;;;;;;;;9.90;70.40;94184.03;4192217;28;19924;-55
2023/04/19 04:22:31;;;;;;;;;;;;;;;9.86;70.83;94185.34;4193044;28;19929;-54
2023/04/19 04:24:40;;;;;;;;;;;;;;;9.60;71.62;94181.94;4191481;28;19924;-56
2023/04/19 04:26:41;;;;;;;;;;;;;;;9.57;71.22;94187.50;4192825;28;19924;-55
2023/04/19 04:28:43;;;;;;;;;;;;;;;9.45;71.44;94188.81;4192193;28;19924;-54
2023/04/19 04:30:44;;;;;;;;;;;;;;;8.97;73.69;94199.09;4192608;28;19924;-52
2023/04/19 04:32:46;;;;;;;;;;;;;;;8.96;73.97;94197.44;4192692;28;19964;-54
2023/04/19 04:34:48;;;;;;;;;;;;;;;8.71;73.72;94198.38;4191020;28;19932;-53
2023/04/19 04:36:49;;;;;;;;;;;;;;;8.43;75.50;94196.00;4188146;28;19929;-55
2023/04/19 04:38:50;;;;;;;;;;;;;;;8.35;76.20;94201.19;4191329;28;19951;-52
2023/04/19 04:40:55;;;;;;;;;;;;;;;8.26;76.96;94204.72;4192364;28;20360;-56
2023/04/19 04:42:59;;;;;;;;;;;;;;;8.16;77.74;94197.84;4192288;28;19925;-55
2023/04/19 04:45:01;;;;;;;;;;;;;;;8.19;77.49;94200.16;4192263;28;19928;-52
2023/04/19 04:47:02;;;;;;;;;;;;;;;8.05;78.11;94203.34;4192968;28;20276;-54
2023/04/19 04:49:04;;;;;;;;;;;;;;;8.17;77.95;94196.91;4190012;28;20380;-52
2023/04/19 04:51:05;;;;;;;;;;;;;;;8.19;77.94;94194.09;4192011;28;19959;-55
2023/04/19 04:53:08;;;;;;;;;;;;;;;8.40;77.59;94191.94;4192886;28;20380;-54
2023/04/19 04:55:13;;;;;;;;;;;;;;;8.56;75.99;94190.34;4192982;28;19925;-53
2023/04/19 04:57:14;;;;;;;;;;;;;;;8.68;75.71;94203.94;4192402;28;19932;-54
2023/04/19 04:59:16;;;;;;;;;;;;;;;8.89;75.76;94198.28;4193775;28;19997;-54
2023/04/19 05:01:18;;;;;;;;;;;;;;;9.02;74.35;94191.59;4192093;28;20343;-55
2023/04/19 05:03:19;;;;;;;;;;;;;;;9.12;74.80;94196.66;4190703;28;19929;-55
2023/04/19 05:05:21;;;;;;;;;;;;;;;9.19;74.04;94195.03;4194899;28;19971;-52
2023/04/19 05:07:23;;;;;;;;;;;;;;;9.02;74.31;94196.81;4195156;28;20030;-50
2023/04/19 05:09:24;;;;;;;;;;;;;;;9.09;73.66;94198.78;4195960;28;19936;-52
2023/04/19 05:11:26;;;;;;;;;;;;;;;9.19;73.68;94200.25;4196095;28;19935;-55
2023/04/19 05:13:27;;;;;;;;;;;;;;;9.27;73.36;94203.84;4195659;28;20278;-55
2023/04/19 05:15:29;;;;;;;;;;;;;;;8.87;74.69;94203.66;4195638;28;20107;-54
2023/04/19 05:17:31;;;;;;;;;;;;;;;8.93;74.37;94204.81;4195915;28;20356;-53
2023/04/19 05:19:32;;;;;;;;;;;;;;;8.97;74.61;94204.31;4193915;28;20381;-53
2023/04/19 05:21:34;;;;;;;;;;;;;;;9.12;74.84;94206.28;4195040;28;19939;-55
2023/04/19 05:23:36;;;;;;;;;;;;;;;9.11;74.01;94202.84;4188342;28;20139;-55
2023/04/19 05:25:38;;;;;;;;;;;;;;;9.27;74.06;94212.53;4194584;28;20031;-55
2023/04/19 05:27:39;;;;;;;;;;;;;;;9.42;73.84;94210.03;4195388;28;19928;-53
2023/04/19 05:29:41;;;;;;;;;;;;;;;9.56;73.28;94204.16;4195204;28;19940;-51
2023/04/19 05:31:42;;;;;;;;;;;;;;;9.72;72.38;94208.59;4195565;28;19932;-53
2023/04/19 05:33:44;;;;;;;;;;;;;;;9.83;71.88;94200.38;4192806;28;19980;-56
2023/04/19 05:35:45;;;;;;;;;;;;;;;9.69;72.01;94208.91;4195192;28;20088;-54
2023/04/19 05:37:47;;;;;;;;;;;;;;;9.14;74.15;94220.00;4193453;28;19967;-57
2023/04/19 05:39:49;;;;;;;;;;;;;;;8.76;75.10;94214.41;4194540;28;19935;-52
2023/04/19 05:41:50;;;;;;;;;;;;;;;8.53;76.74;94217.59;4196056;28;19925;-56
2023/04/19 05:43:52;;;;;;;;;;;;;;;8.44;77.32;94213.31;4195095;28;19931;-51
2023/04/19 05:45:53;;;;;;;;;;;;;;;8.69;76.77;94208.16;4194959;28;20418;-53
2023/04/19 05:47:55;;;;;;;;;;;;;;;8.75;76.54;94210.16;4195500;28;19946;-54
2023/04/19 05:49:57;;;;;;;;;;;;;;;8.42;77.00;94219.69;4193703;28;19925;-52
2023/04/19 05:51:58;;;;;;;;;;;;;;;8.61;77.28;94209.78;4195610;28;20062;-54
2023/04/19 05:54:00;;;;;;;;;;;;;;;8.63;77.22;94209.63;4194550;28;21535;-54
2023/04/19 05:56:01;;;;;;;;;;;;;;;8.87;76.80;94208.88;4195085;28;20069;-53
2023/04/19 05:58:03;;;;;;;;;;;;;;;8.79;75.95;94220.09;4191190;28;19928;-54
2023/04/19 06:00:04;;;;;;;;;;;;;;;8.90;76.35;94215.56;4195046;28;19928;-56
2023/04/19 06:02:06;;;;;;;;;;;;;;;9.19;75.52;94215.13;4193532;28;19975;-53
2023/04/19 06:04:08;;;;;;;;;;;;;;;9.44;73.89;94215.94;4191669;28;19932;-57
2023/04/19 06:06:09;;;;;;;;;;;;;;;9.20;73.99;94214.13;4186370;28;19924;-55
2023/04/19 06:08:11;;;;;;;;;;;;;;;9.42;74.54;94223.13;4194898;28;19979;-55
2023/04/19 06:10:13;;;;;;;;;;;;;;;9.51;73.66;94218.72;4192736;28;20249;-52
2023/04/19 06:12:14;;;;;;;;;;;;;;;9.63;72.56;94218.19;4194953;28;19940;-56
2023/04/19 06:14:16;;;;;;;;;;;;;;;9.77;71.89;94215.94;4194335;28;20381;-54
2023/04/19 06:16:18;;;;;;;;;;;;;;;9.96;72.09;94217.34;4194310;28;19924;-57
2023/04/19 06:18:20;;;;;;;;;;;;;;;10.13;70.95;94212.88;4193228;28;19955;-54
2023/04/19 06:20:21;;;;;;;;;;;;;;;10.20;70.83;94213.88;4194454;28;19928;-54
2023/04/19 06:22:23;;;;;;;;;;;;;;;10.20;70.11;94225.16;4195257;28;19931;-53
2023/04/19 06:24:24;;;;;;;;;;;;;;;10.28;70.35;94213.00;4194464;28;19924;-55
2023/04/19 06:26:26;;;;;;;;;;;;;;;10.27;70.02;94221.84;4194299;28;19967;-56
2023/04/19 06:28:27;;;;;;;;;;;;;;;10.25;70.16;94214.16;4194446;28;19929;-55
2023/04/19 06:30:29;;;;;;;;;;;;;;;10.26;69.81;94218.44;4194651;28;20021;-53
2023/04/19 06:32:30;;;;;;;;;;;;;;;10.31;69.97;94217.94;4194254;28;19924;-50
2023/04/19 06:34:32;;;;;;;;;;;;;;;10.34;70.03;94213.16;4190868;28;19941;-57
2023/04/19 06:36:33;;;;;;;;;;;;;;;10.41;69.82;94221.16;4194424;28;19932;-54
2023/04/19 06:38:37;;;;;;;;;;;;;;;10.55;69.37;94220.47;4190655;28;20015;-57
2023/04/19 06:40:38;;;;;;;;;;;;;;;10.54;68.79;94229.31;4180617;28;20336;-60
2023/04/19 06:42:40;;;;;;;;;;;;;;;10.66;68.97;94221.88;4193193;28;19928;-62
2023/04/19 06:44:41;;;;;;;;;;;;;;;10.74;68.32;94221.84;4193812;28;19944;-63
2023/04/19 06:46:43;;;;;;;;;;;;;;;10.81;68.04;94219.34;4193268;28;20373;-61
2023/04/19 06:48:44;;;;;;;;;;;;;;;10.87;67.55;94226.53;4192215;28;19928;-61
2023/04/19 06:50:46;;;;;;;;;;;;;;;10.90;67.98;94223.56;4192286;28;19924;-60
2023/04/19 06:52:47;;;;;;;;;;;;;;;10.88;67.82;94230.78;4193890;28;19990;-61
2023/04/19 06:54:49;;;;;;;;;;;;;;;10.94;67.69;94231.91;4194313;28;19924;-63
2023/04/19 06:56:51;;;;;;;;;;;;;;;10.89;67.94;94232.41;4193746;28;19935;-63
2023/04/19 06:58:52;;;;;;;;;;;;;;;11.01;67.79;94235.44;4193455;28;19970;-61
2023/04/19 07:00:54;;;;;;;;;;;;;;;10.98;67.64;94234.00;4193612;28;20083;-65
2023/04/19 07:02:55;;;;;;;;;;;;;;;10.93;67.01;94238.94;4193779;28;19978;-62
2023/04/19 07:04:57;;;;;;;;;;;;;;;10.78;67.35;94236.25;4192184;28;20353;-61
2023/04/19 07:06:59;;;;;;;;;;;;;;;10.79;67.73;94231.81;4193494;28;20395;-61
2023/04/19 07:09:01;;;;;;;;;;;;;;;10.83;68.05;94233.09;4192689;28;19924;-60
2023/04/19 07:11:04;;;;;;;;;;;;;;;10.97;67.87;94229.75;4193721;28;19928;-61
2023/04/19 07:13:05;;;;;;;;;;;;;;;11.07;67.21;94229.53;4192433;28;19975;-61
2023/04/19 07:15:07;;;;;;;;;;;;;;;11.07;67.07;94232.94;4188008;28;20024;-62
2023/04/19 07:17:08;;;;;;;;;;;;;;;11.11;67.19;94235.25;4193289;28;19966;-60
2023/04/19 07:19:10;;;;;;;;;;;;;;;11.05;67.31;94237.56;4191509;28;20051;-62
2023/04/19 07:21:11;;;;;;;;;;;;;;;11.12;67.00;94232.47;4193245;28;19935;-63
2023/04/19 07:23:13;;;;;;;;;;;;;;;11.11;67.18;94235.25;4193082;28;19950;-62
2023/04/19 07:25:15;;;;;;;;;;;;;;;11.13;66.78;94233.25;4193802;28;20513;-61
2023/04/19 07:27:17;;;;;;;;;;;;;;;11.14;66.93;94243.59;4194029;28;19924;-62
2023/04/19 07:29:19;;;;;;;;;;;;;;;10.34;68.90;94249.03;4192016;28;19990;-61
2023/04/19 07:31:20;;;;;;;;;;;;;;;9.76;71.49;94248.28;4194060;28;19924;-61
2023/04/19 07:33:22;;;;;;;;;;;;;;;9.98;71.13;94252.84;4188355;28;19932;-60
2023/04/19 07:35:27;;;;;;;;;;;;;;;10.25;70.14;94240.34;4192445;28;20349;-63
2023/04/19 07:37:29;;;;;;;;;;;;;;;10.44;69.50;94239.97;4193748;28;19925;-63
2023/04/19 07:39:30;;;;;;;;;;;;;;;10.53;68.94;94242.56;4187976;28;19947;-63
2023/04/19 07:41:32;;;;;;;;;;;;;;;10.68;68.43;94238.25;4188315;28;20274;-62
2023/04/19 07:43:36;;;;;;;;;;;;;;;10.78;68.43;94240.69;4192873;28;19934;-61
2023/04/19 07:45:40;;;;;;;;;;;;;;;10.99;68.06;94234.81;4193312;28;20485;-63
2023/04/19 07:47:41;;;;;;;;;;;;;;;11.16;67.24;94235.53;4192867;28;20175;-62
2023/04/19 07:49:43;;;;;;;;;;;;;;;11.20;66.91;94234.19;4190861;28;19986;-61
2023/04/19 07:51:44;;;;;;;;;;;;;;;11.18;66.90;94241.41;4194148;28;19931;-60
2023/04/19 07:53:47;;;;;;;;;;;;;;;11.28;66.71;94237.56;4192556;28;19924;-62
2023/04/19 07:55:48;;;;;;;;;;;;;;;11.30;66.56;94239.22;4192806;28;20448;-60
2023/04/19 07:57:50;;;;;;;;;;;;;;;11.30;66.04;94239.22;4190645;28;20015;-64
2023/04/19 07:59:56;;;;;;;;;;;;;;;11.15;66.46;94241.78;4187424;28;19977;-63
2023/04/19 08:01:58;;;;;;;;;;;;;;;11.22;66.04;94240.88;4192875;28;19924;-62
2023/04/19 08:03:59;;;;;;;;;;;;;;;11.20;65.98;94237.63;4190965;28;20334;-62
2023/04/19 08:06:07;;;;;;;;;;;;;;;11.25;66.20;94237.13;4192751;28;19939;-62
2023/04/19 08:08:08;;;;;;;;;;;;;;;11.33;66.09;94244.09;4193496;28;19984;-62
2023/04/19 08:10:10;;;;;;;;;;;;;;;11.32;66.15;94237.25;4192535;28;20018;-62
2023/04/19 08:12:11;;;;;;;;;;;;;;;11.36;66.03;94234.09;4191771;28;19925;-62
2023/04/19 08:14:33;;;;;;;;;;;;;;;11.38;65.47;94236.50;4192803;28;20640;-63
2023/04/19 08:16:48;;;;;;;;;;;;;;;11.43;65.57;94237.63;4191436;28;20357;-62
2023/04/19 08:18:52;;;;;;;;;;;;;;;11.40;65.61;94240.63;4190746;28;19929;-63
2023/04/19 08:20:55;;;;;;;;;;;;;;;11.37;65.30;94240.16;4192974;28;20369;-61
2023/04/19 08:22:57;;;;;;;;;;;;;;;11.37;65.43;94238.34;4192452;28;19924;-62
2023/04/19 08:25:02;;;;;;;;;;;;;;;11.43;65.79;94237.63;4192236;28;20389;-61
2023/04/19 08:27:04;;;;;;;;;;;;;;;11.28;66.38;94234.16;4191608;28;19928;-67
2023/04/19 08:29:06;;;;;;;;;;;;;;;10.69;67.96;94246.91;4192741;28;19933;-62
2023/04/19 08:31:07;;;;;;;;;;;;;;;10.86;67.87;94240.59;4193449;28;20242;-62
2023/04/19 08:33:09;;;;;;;;;;;;;;;11.01;67.14;94241.53;4191642;28;20524;-63
2023/04/19 08:35:12;;;;;;;;;;;;;;;11.11;66.83;94237.88;4191286;28;19928;-62
2023/04/19 08:37:13;;;;;;;;;;;;;;;11.32;66.52;94237.25;4192967;28;19933;-62
2023/04/19 08:39:15;;;;;;;;;;;;;;;11.47;65.32;94232.88;4192753;28;19924;-62
2023/04/19 08:41:32;;;;;;;;;;;;;;;11.55;64.95;94227.56;4188616;28;20389;-62
2023/04/19 08:43:34;;;;;;;;;;;;;;;11.62;64.72;94230.28;4190925;28;19928;-57
2023/04/19 08:45:36;;;;;;;;;;;;;;;11.70;64.68;94227.56;4192057;28;19924;-55
2023/04/19 08:47:39;;;;;;;;;;;;;;;11.75;64.36;94221.81;4183630;28;20012;-52
2023/04/19 08:49:43;;;;;;;;;;;;;;;11.90;64.11;94224.50;4190582;28;20051;-54
2023/04/19 08:51:46;;;;;;;;;;;;;;;11.94;63.68;94226.59;4193140;28;20276;-54
2023/04/19 08:53:48;;;;;;;;;;;;;;;11.90;63.83;94227.94;4192418;28;20384;-54
2023/04/19 08:55:50;;;;;;;;;;;;;;;11.95;63.49;94222.16;4191166;28;19925;-54
2023/04/19 08:58:10;;;;;;;;;;;;;;;12.00;63.36;94211.91;4192635;28;19924;-55
2023/04/19 09:00:26;;;;;;;;;;;;;;;12.16;63.00;94214.38;4192382;28;19936;-55
2023/04/19 09:02:28;;;;;;;;;;;;;;;12.26;62.62;94224.59;4185429;28;20308;-54
2023/04/19 09:04:30;;;;;;;;;;;;;;;12.31;62.03;94217.00;4189124;28;19925;-55
2023/04/19 09:06:38;;;;;;;;;;;;;;;12.35;61.71;94223.53;4193229;28;19924;-52
2023/04/19 09:08:40;;;;;;;;;;;;;;;12.19;60.95;94213.19;4192423;28;19967;-55
2023/04/19 09:10:44;;;;;;;;;;;;;;;12.16;60.93;94214.38;4192310;28;19940;-53
2023/04/19 09:12:59;;;;;;;;;;;;;;;12.22;61.26;94218.91;4191458;28;19931;-54
2023/04/19 09:15:03;;;;;;;;;;;;;;;11.02;64.97;94214.31;4192670;28;19948;-59
2023/04/19 09:17:14;;;;;;;;;;;;;;;11.14;65.69;94203.44;4192302;28;19952;-53
2023/04/19 09:19:17;;;;;;;;;;;;;;;11.59;65.22;94205.19;4185961;28;20393;-53
2023/04/19 09:21:29;;;;;;;;;;;;;;;11.91;63.84;94200.69;4191807;28;19968;-54
2023/04/19 09:23:30;;;;;;;;;;;;;;;12.20;62.84;94197.28;4190983;28;20163;-54
2023/04/19 09:25:32;;;;;;;;;;;;;;;12.30;61.86;94202.22;4192803;28;19928;-54
2023/04/19 09:27:53;;;;;;;;;;;;;;;11.95;63.59;94206.41;4191858;28;20391;-56
2023/04/19 09:29:55;;;;;;;;;;;;;;;12.16;63.04;94203.88;4191641;28;19977;-57
2023/04/19 09:31:57;;;;;;;;;;;;;;;12.21;63.08;94212.03;4187502;28;19932;-58
2023/04/19 09:34:13;;;;;;;;;;;;;;;12.39;61.98;94208.22;4185958;28;19967;-55
2023/04/19 09:36:27;;;;;;;;;;;;;;;12.48;61.36;94199.25;4191455;28;20126;-53
2023/04/19 09:38:29;;;;;;;;;;;;;;;12.79;60.34;94192.94;4192812;28;19955;-55
2023/04/19 09:40:30;;;;;;;;;;;;;;;12.28;60.97;94202.44;4191962;28;20439;-54
2023/04/19 09:42:45;;;;;;;;;;;;;;;12.20;61.16;94199.09;4187904;28;20165;-52
2023/04/19 09:44:56;;;;;;;;;;;;;;;12.25;61.17;94215.91;4184694;28;20342;-56
2023/04/19 09:47:00;;;;;;;;;;;;;;;12.22;61.64;94191.84;4195455;28;19924;-55
2023/04/19 09:49:22;;;;;;;;;;;;;;;12.67;61.17;94190.81;4193207;28;19986;-56
2023/04/19 09:51:44;;;;;;;;;;;;;;;13.21;58.60;94186.94;4189405;28;20030;-56
2023/04/19 09:53:46;;;;;;;;;;;;;;;13.39;57.75;94183.06;4194923;28;19928;-55
2023/04/19 09:55:48;;;;;;;;;;;;;;;13.69;57.49;94183.72;4193317;28;19924;-58
2023/04/19 09:58:02;;;;;;;;;;;;;;;13.84;56.33;94179.19;4191414;28;19986;-57
2023/04/19 10:00:07;;;;;;;;;;;;;;;13.95;55.37;94179.66;4195086;28;19925;-55
2023/04/19 10:02:09;;;;;;;;;;;;;;;13.63;55.72;94184.47;4194062;28;20011;-57
2023/04/19 10:04:11;;;;;;;;;;;;;;;13.83;56.02;94172.31;4191167;28;20039;-53
2023/04/19 10:06:34;;;;;;;;;;;;;;;14.06;55.74;94168.59;4194963;28;19925;-54
2023/04/19 10:08:55;;;;;;;;;;;;;;;14.26;54.78;94164.25;4189506;28;19925;-55
2023/04/19 10:10:57;;;;;;;;;;;;;;;13.51;56.51;94169.22;4195411;28;20343;-54
2023/04/19 10:13:00;;;;;;;;;;;;;;;12.94;58.69;94172.69;4194883;28;20027;-59
2023/04/19 10:15:04;;;;;;;;;;;;;;;13.14;59.36;94166.81;4194330;28;19928;-55
2023/04/19 10:17:06;;;;;;;;;;;;;;;13.46;57.89;94168.94;4194137;28;19925;-56
2023/04/19 10:19:08;;;;;;;;;;;;;;;13.45;58.40;94175.22;4193687;28;19990;-56
2023/04/19 10:21:10;;;;;;;;;;;;;;;12.95;59.79;94171.69;4193266;28;19968;-54
2023/04/19 10:23:12;;;;;;;;;;;;;;;13.36;58.42;94168.47;4193162;28;20336;-56
2023/04/19 10:25:14;;;;;;;;;;;;;;;13.40;57.06;94169.72;4195716;28;19924;-53
2023/04/19 10:27:16;;;;;;;;;;;;;;;13.27;58.18;94177.44;4194552;28;19932;-54
2023/04/19 10:29:37;;;;;;;;;;;;;;;13.51;57.32;94163.16;4194079;28;19932;-54
2023/04/19 10:31:39;;;;;;;;;;;;;;;13.84;56.57;94158.13;4195893;28;19929;-55
2023/04/19 10:33:40;;;;;;;;;;;;;;;12.93;57.81;94150.03;4174672;28;19973;-57
2023/04/19 10:35:43;;;;;;;;;;;;;;;12.64;58.91;94153.56;4194689;28;19928;-56
2023/04/19 10:38:17;;;;;;;;;;;;;;;13.19;57.69;94161.81;4194802;28;20015;-53
2023/04/19 10:40:38;;;;;;;;;;;;;;;13.64;56.76;94147.47;4165957;28;19956;-55
2023/04/19 10:43:00;;;;;;;;;;;;;;;13.13;57.21;94160.75;4189496;28;19924;-55